createdAt,value
2018-05-03T00:00:47.822Z,995.37
2018-05-03T00:01:53.169Z,995.35
2018-05-03T00:02:58.442Z,995.29
2018-05-03T00:04:03.796Z,995.34
2018-05-03T00:05:08.162Z,995.31
2018-05-03T00:06:13.427Z,995.32
2018-05-03T00:07:18.789Z,995.35
2018-05-03T00:08:23.144Z,995.41
2018-05-03T00:09:27.408Z,995.31
2018-05-03T00:10:32.677Z,995.35
2018-05-03T00:11:37.950Z,995.34
2018-05-03T00:12:43.317Z,995.31
2018-05-03T00:13:47.680Z,995.35
2018-05-03T00:14:52.941Z,995.38
2018-05-03T00:15:58.311Z,995.38
2018-05-03T00:17:02.576Z,995.4
2018-05-03T00:18:06.837Z,995.34
2018-05-03T00:19:12.296Z,995.34
2018-05-03T00:20:17.561Z,995.4
2018-05-03T00:21:21.829Z,995.44
2018-05-03T00:22:26.089Z,995.47
2018-05-03T00:23:31.350Z,995.47
2018-05-03T00:24:36.611Z,995.52
2018-05-03T00:25:41.976Z,995.52
2018-05-03T00:26:46.239Z,995.53
2018-05-03T00:27:50.411Z,995.52
2018-05-03T00:28:55.675Z,995.47
2018-05-03T00:30:00.934Z,995.46
2018-05-03T00:31:06.209Z,995.56
2018-05-03T00:32:10.578Z,995.53
2018-05-03T00:33:14.943Z,995.44
2018-05-03T00:34:20.209Z,995.38
2018-05-03T00:35:25.479Z,995.53
2018-05-03T00:36:29.746Z,995.56
2018-05-03T00:37:34.109Z,995.49
2018-05-03T00:38:39.279Z,995.53
2018-05-03T00:39:44.456Z,995.55
2018-05-03T00:40:49.621Z,995.52
2018-05-03T00:41:53.892Z,995.52
2018-05-03T00:42:58.058Z,995.61
2018-05-03T00:44:02.221Z,995.66
2018-05-03T00:45:07.485Z,995.66
2018-05-03T00:46:12.850Z,995.63
2018-05-03T00:47:18.109Z,995.63
2018-05-03T00:48:22.369Z,995.7
2018-05-03T00:49:26.633Z,995.61
2018-05-03T00:50:31.996Z,995.64
2018-05-03T00:51:37.262Z,995.66
2018-05-03T00:52:41.526Z,995.67
2018-05-03T00:53:45.786Z,995.74
2018-05-03T00:54:51.052Z,995.69
2018-05-03T00:55:56.423Z,995.67
2018-05-03T00:57:00.690Z,995.77
2018-05-03T00:58:09.052Z,995.74
2018-05-03T00:59:13.413Z,995.8
2018-05-03T01:00:18.776Z,995.79
2018-05-03T01:01:23.050Z,995.79
2018-05-03T01:02:27.309Z,995.82
2018-05-03T01:03:34.565Z,995.79
2018-05-03T01:04:39.842Z,995.82
2018-05-03T01:05:45.104Z,995.82
2018-05-03T01:06:49.370Z,995.82
2018-05-03T01:07:53.638Z,995.74
2018-05-03T01:08:57.996Z,995.76
2018-05-03T01:10:03.252Z,995.72
2018-05-03T01:11:08.616Z,995.69
2018-05-03T01:12:12.879Z,995.72
2018-05-03T01:13:17.136Z,995.69
2018-05-03T01:14:22.503Z,995.63
2018-05-03T01:15:27.880Z,995.75
2018-05-03T01:16:32.153Z,995.69
2018-05-03T01:17:37.414Z,995.79
2018-05-03T01:18:42.679Z,995.83
2018-05-03T01:19:47.944Z,995.88
2018-05-03T01:20:52.312Z,995.88
2018-05-03T01:21:56.676Z,995.79
2018-05-03T01:23:01.935Z,995.89
2018-05-03T01:24:07.291Z,995.8
2018-05-03T01:25:11.645Z,995.8
2018-05-03T01:26:16.014Z,995.75
2018-05-03T01:27:21.280Z,995.88
2018-05-03T01:28:26.542Z,995.88
2018-05-03T01:29:30.804Z,995.91
2018-05-03T01:30:35.169Z,995.85
2018-05-03T01:31:40.432Z,995.91
2018-05-03T01:32:45.797Z,995.92
2018-05-03T01:33:50.054Z,995.91
2018-05-03T01:34:54.319Z,995.91
2018-05-03T01:35:59.590Z,995.95
2018-05-03T01:37:04.951Z,995.92
2018-05-03T01:38:09.221Z,995.97
2018-05-03T01:39:13.578Z,996.01
2018-05-03T01:40:18.842Z,995.92
2018-05-03T01:41:24.115Z,995.97
2018-05-03T01:42:28.383Z,995.89
2018-05-03T01:43:32.646Z,995.94
2018-05-03T01:44:37.009Z,995.92
2018-05-03T01:45:42.377Z,995.98
2018-05-03T01:46:46.648Z,995.94
2018-05-03T01:47:50.915Z,996.01
2018-05-03T01:48:56.172Z,996.01
2018-05-03T01:50:01.445Z,996.07
2018-05-03T01:51:06.712Z,996.03
2018-05-03T01:52:10.979Z,996.04
2018-05-03T01:53:15.246Z,996.09
2018-05-03T01:54:20.514Z,996.07
2018-05-03T01:55:25.878Z,996.06
2018-05-03T01:56:30.250Z,996.12
2018-05-03T01:57:34.615Z,996.17
2018-05-03T01:58:42.980Z,996.16
2018-05-03T01:59:48.243Z,996.12
2018-05-03T02:00:52.514Z,996.18
2018-05-03T02:01:56.879Z,996.25
2018-05-03T02:03:02.146Z,996.17
2018-05-03T02:04:07.412Z,996.19
2018-05-03T02:05:11.780Z,996.25
2018-05-03T02:06:15.955Z,996.22
2018-05-03T02:07:23.218Z,996.19
2018-05-03T02:08:28.480Z,996.2
2018-05-03T02:09:33.752Z,996.22
2018-05-03T02:10:39.140Z,996.25
2018-05-03T02:11:43.415Z,996.17
2018-05-03T02:12:48.672Z,996.22
2018-05-03T02:13:54.034Z,996.28
2018-05-03T02:14:58.392Z,996.23
2018-05-03T02:16:02.657Z,996.22
2018-05-03T02:17:07.929Z,996.22
2018-05-03T02:18:13.194Z,996.25
2018-05-03T02:19:19.468Z,996.28
2018-05-03T02:20:23.737Z,996.37
2018-05-03T02:21:28.011Z,996.32
2018-05-03T02:22:33.381Z,996.31
2018-05-03T02:23:38.538Z,996.37
2018-05-03T02:24:43.802Z,996.38
2018-05-03T02:25:48.167Z,996.37
2018-05-03T02:26:53.437Z,996.41
2018-05-03T02:27:58.801Z,996.47
2018-05-03T02:29:04.159Z,996.51
2018-05-03T02:30:08.427Z,996.52
2018-05-03T02:31:13.778Z,996.49
2018-05-03T02:32:19.144Z,996.56
2018-05-03T02:33:23.480Z,996.61
2018-05-03T02:34:27.950Z,996.53
2018-05-03T02:35:33.418Z,996.55
2018-05-03T02:36:37.790Z,996.67
2018-05-03T02:37:45.130Z,996.56
2018-05-03T02:38:53.390Z,996.71
2018-05-03T02:39:58.755Z,996.65
2018-05-03T02:41:03.127Z,996.8
2018-05-03T02:42:07.488Z,996.74
2018-05-03T02:43:12.754Z,996.71
2018-05-03T02:44:18.019Z,996.7
2018-05-03T02:45:22.385Z,996.8
2018-05-03T02:46:26.648Z,996.71
2018-05-03T02:47:31.813Z,996.76
2018-05-03T02:48:37.068Z,996.7
2018-05-03T02:49:42.326Z,996.65
2018-05-03T02:50:46.596Z,996.71
2018-05-03T02:51:50.865Z,996.76
2018-05-03T02:52:56.224Z,996.83
2018-05-03T02:54:01.584Z,996.89
2018-05-03T02:55:05.851Z,996.86
2018-05-03T02:56:10.125Z,996.95
2018-05-03T02:57:15.489Z,996.82
2018-05-03T02:58:20.755Z,996.95
2018-05-03T02:59:28.021Z,996.93
2018-05-03T03:00:32.308Z,996.96
2018-05-03T03:01:36.583Z,996.91
2018-05-03T03:02:41.956Z,996.92
2018-05-03T03:03:47.227Z,996.95
2018-05-03T03:04:51.493Z,996.96
2018-05-03T03:05:55.780Z,997.01
2018-05-03T03:07:01.050Z,997.04
2018-05-03T03:08:06.316Z,997.08
2018-05-03T03:09:10.664Z,997.01
2018-05-03T03:10:14.827Z,997.1
2018-05-03T03:11:19.199Z,997.1
2018-05-03T03:12:24.564Z,997.11
2018-05-03T03:13:31.824Z,997.08
2018-05-03T03:14:36.291Z,997.17
2018-05-03T03:15:41.746Z,997.08
2018-05-03T03:16:46.214Z,997.17
2018-05-03T03:17:50.475Z,997.26
2018-05-03T03:18:55.942Z,997.22
2018-05-03T03:20:00.404Z,997.16
2018-05-03T03:21:24.155Z,997.28
2018-05-03T03:22:29.413Z,997.32
2018-05-03T03:23:34.772Z,997.26
2018-05-03T03:24:39.137Z,997.3
2018-05-03T03:25:43.296Z,997.3
2018-05-03T03:26:48.661Z,997.35
2018-05-03T03:27:53.931Z,997.36
2018-05-03T03:28:59.295Z,997.39
2018-05-03T03:30:03.548Z,997.47
2018-05-03T03:31:07.819Z,997.5
2018-05-03T03:32:13.099Z,997.47
2018-05-03T03:33:18.459Z,997.44
2018-05-03T03:34:22.723Z,997.44
2018-05-03T03:35:27.092Z,997.44
2018-05-03T03:36:32.368Z,997.51
2018-05-03T03:37:37.629Z,997.5
2018-05-03T03:38:41.896Z,997.5
2018-05-03T03:39:46.256Z,997.53
2018-05-03T03:40:51.522Z,997.53
2018-05-03T03:41:56.888Z,997.48
2018-05-03T03:43:01.056Z,997.57
2018-05-03T03:44:05.319Z,997.59
2018-05-03T03:45:09.690Z,997.63
2018-05-03T03:46:15.059Z,997.56
2018-05-03T03:47:19.416Z,997.62
2018-05-03T03:48:23.773Z,997.57
2018-05-03T03:49:30.036Z,997.53
2018-05-03T03:50:35.300Z,997.62
2018-05-03T03:51:39.573Z,997.63
2018-05-03T03:52:43.830Z,997.66
2018-05-03T03:53:48.095Z,997.69
2018-05-03T03:54:53.358Z,997.66
2018-05-03T03:55:58.632Z,997.67
2018-05-03T03:57:02.797Z,997.75
2018-05-03T03:58:07.159Z,997.72
2018-05-03T03:59:12.576Z,997.69
2018-05-03T04:00:17.836Z,997.78
2018-05-03T04:01:22.200Z,997.69
2018-05-03T04:02:26.570Z,997.75
2018-05-03T04:03:32.037Z,997.73
2018-05-03T04:04:36.371Z,997.76
2018-05-03T04:05:40.826Z,997.78
2018-05-03T04:06:46.090Z,997.79
2018-05-03T04:07:51.435Z,997.75
2018-05-03T04:08:55.896Z,997.85
2018-05-03T04:10:01.358Z,997.79
2018-05-03T04:11:05.708Z,997.79
2018-05-03T04:12:10.178Z,997.85
2018-05-03T04:13:15.440Z,997.82
2018-05-03T04:14:20.697Z,997.76
2018-05-03T04:15:24.966Z,997.81
2018-05-03T04:16:29.335Z,997.85
2018-05-03T04:17:34.599Z,997.92
2018-05-03T04:18:39.957Z,997.98
2018-05-03T04:19:44.211Z,998
2018-05-03T04:20:48.476Z,997.9
2018-05-03T04:22:00.644Z,997.93
2018-05-03T04:23:06.010Z,997.98
2018-05-03T04:24:11.268Z,998.02
2018-05-03T04:25:16.638Z,997.99
2018-05-03T04:26:20.907Z,997.95
2018-05-03T04:27:26.174Z,998.03
2018-05-03T04:28:31.444Z,998.09
2018-05-03T04:29:36.710Z,997.99
2018-05-03T04:30:41.067Z,997.99
2018-05-03T04:31:45.431Z,998.08
2018-05-03T04:32:50.689Z,998.06
2018-05-03T04:33:55.978Z,998.09
2018-05-03T04:35:00.236Z,997.98
2018-05-03T04:36:04.504Z,998.05
2018-05-03T04:37:09.767Z,998.05
2018-05-03T04:38:15.029Z,998.17
2018-05-03T04:39:20.287Z,998.21
2018-05-03T04:40:24.552Z,998.34
2018-05-03T04:41:28.817Z,998.28
2018-05-03T04:42:37.174Z,998.39
2018-05-03T04:43:42.539Z,998.34
2018-05-03T04:44:46.903Z,998.34
2018-05-03T04:45:51.164Z,998.32
2018-05-03T04:46:56.444Z,998.31
2018-05-03T04:48:01.645Z,998.38
2018-05-03T04:49:06.908Z,998.42
2018-05-03T04:50:11.173Z,998.31
2018-05-03T04:51:15.441Z,998.31
2018-05-03T04:52:20.700Z,998.41
2018-05-03T04:53:26.059Z,998.39
2018-05-03T04:54:30.421Z,998.41
2018-05-03T04:55:34.784Z,998.5
2018-05-03T04:56:40.058Z,998.47
2018-05-03T04:57:45.426Z,998.5
2018-05-03T04:58:49.694Z,998.53
2018-05-03T04:59:53.958Z,998.47
2018-05-03T05:00:59.326Z,998.63
2018-05-03T05:02:04.694Z,998.65
2018-05-03T05:03:09.064Z,998.59
2018-05-03T05:04:14.327Z,998.68
2018-05-03T05:05:19.693Z,998.6
2018-05-03T05:06:23.963Z,998.65
2018-05-03T05:07:28.226Z,998.66
2018-05-03T05:08:32.494Z,998.62
2018-05-03T05:09:37.951Z,998.59
2018-05-03T05:10:42.224Z,998.62
2018-05-03T05:11:46.495Z,998.59
2018-05-03T05:12:51.859Z,998.68
2018-05-03T05:13:57.217Z,998.65
2018-05-03T05:15:01.481Z,998.65
2018-05-03T05:16:05.758Z,998.78
2018-05-03T05:17:10.929Z,998.75
2018-05-03T05:18:16.190Z,998.87
2018-05-03T05:19:21.462Z,998.87
2018-05-03T05:20:25.731Z,998.93
2018-05-03T05:21:30.005Z,998.87
2018-05-03T05:22:38.369Z,998.96
2018-05-03T05:23:43.732Z,998.99
2018-05-03T05:24:48.995Z,998.88
2018-05-03T05:25:53.256Z,999.03
2018-05-03T05:26:57.516Z,999.06
2018-05-03T05:28:02.873Z,999.03
2018-05-03T05:29:08.230Z,999.05
2018-05-03T05:30:12.593Z,999.05
2018-05-03T05:31:19.860Z,999.06
2018-05-03T05:32:25.214Z,999.03
2018-05-03T05:33:30.476Z,999.12
2018-05-03T05:34:34.734Z,999.15
2018-05-03T05:35:38.995Z,999.16
2018-05-03T05:36:44.273Z,999.19
2018-05-03T05:37:49.631Z,999.15
2018-05-03T05:38:57.932Z,999.19
2018-05-03T05:40:02.229Z,999.24
2018-05-03T05:41:06.505Z,999.24
2018-05-03T05:42:11.767Z,999.34
2018-05-03T05:43:17.050Z,999.25
2018-05-03T05:44:21.544Z,999.27
2018-05-03T05:45:26.887Z,999.31
2018-05-03T05:46:32.236Z,999.27
2018-05-03T05:47:36.696Z,999.33
2018-05-03T05:48:41.054Z,999.33
2018-05-03T05:49:46.520Z,999.33
2018-05-03T05:50:50.858Z,999.27
2018-05-03T05:51:55.233Z,999.3
2018-05-03T05:53:00.502Z,999.31
2018-05-03T05:54:05.757Z,999.36
2018-05-03T05:55:10.121Z,999.33
2018-05-03T05:56:15.384Z,999.33
2018-05-03T05:57:20.842Z,999.33
2018-05-03T05:58:25.105Z,999.38
2018-05-03T05:59:29.471Z,999.41
2018-05-03T06:00:34.827Z,999.4
2018-05-03T06:01:40.202Z,999.53
2018-05-03T06:02:44.666Z,999.46
2018-05-03T06:03:49.932Z,999.53
2018-05-03T06:04:55.192Z,999.53
2018-05-03T06:06:00.455Z,999.43
2018-05-03T06:07:04.703Z,999.62
2018-05-03T06:08:08.869Z,999.53
2018-05-03T06:09:14.129Z,999.62
2018-05-03T06:10:19.605Z,999.53
2018-05-03T06:11:23.969Z,999.62
2018-05-03T06:12:28.333Z,999.55
2018-05-03T06:13:33.794Z,999.59
2018-05-03T06:14:38.062Z,999.58
2018-05-03T06:15:42.529Z,999.65
2018-05-03T06:16:48.004Z,999.62
2018-05-03T06:17:52.365Z,999.7
2018-05-03T06:18:56.746Z,999.68
2018-05-03T06:20:02.147Z,999.73
2018-05-03T06:21:06.315Z,999.64
2018-05-03T06:22:10.580Z,999.76
2018-05-03T06:23:18.945Z,999.73
2018-05-03T06:24:24.208Z,999.69
2018-05-03T06:25:29.369Z,999.7
2018-05-03T06:26:34.638Z,999.76
2018-05-03T06:27:38.895Z,999.77
2018-05-03T06:28:43.158Z,999.85
2018-05-03T06:29:48.415Z,999.86
2018-05-03T06:30:53.782Z,999.91
2018-05-03T06:31:58.050Z,999.83
2018-05-03T06:33:02.346Z,999.88
2018-05-03T06:34:07.600Z,999.88
2018-05-03T06:35:12.862Z,999.91
2018-05-03T06:36:18.165Z,999.82
2018-05-03T06:37:22.429Z,999.89
2018-05-03T06:38:26.685Z,999.89
2018-05-03T06:39:31.943Z,999.86
2018-05-03T06:40:37.213Z,999.76
2018-05-03T06:41:42.578Z,999.92
2018-05-03T06:42:46.840Z,999.92
2018-05-03T06:43:51.232Z,1000.03
2018-05-03T06:44:56.507Z,999.98
2018-05-03T06:46:00.877Z,1000.01
2018-05-03T06:47:05.132Z,999.97
2018-05-03T06:48:10.488Z,1000.03
2018-05-03T06:49:15.847Z,999.97
2018-05-03T06:50:20.104Z,1000.03
2018-05-03T06:51:24.454Z,1000.07
2018-05-03T06:52:29.625Z,1000.06
2018-05-03T06:53:34.982Z,1000.01
2018-05-03T06:54:39.340Z,999.95
2018-05-03T06:55:43.608Z,1000.01
2018-05-03T06:56:48.974Z,1000
2018-05-03T06:57:54.231Z,1000.06
2018-05-03T06:58:58.483Z,999.94
2018-05-03T07:00:02.738Z,1000.01
2018-05-03T07:01:07.005Z,1000.01
2018-05-03T07:02:12.260Z,1000.01
2018-05-03T07:03:17.623Z,1000.04
2018-05-03T07:04:22.039Z,1000.09
2018-05-03T07:05:27.109Z,1000.04
2018-05-03T07:06:32.413Z,1000.06
2018-05-03T07:07:37.782Z,1000.12
2018-05-03T07:08:42.051Z,1000.07
2018-05-03T07:09:46.310Z,1000.17
2018-05-03T07:10:50.570Z,1000.07
2018-05-03T07:11:55.838Z,1000.14
2018-05-03T07:13:01.112Z,1000.12
2018-05-03T07:14:05.301Z,1000.19
2018-05-03T07:15:09.659Z,1000.22
2018-05-03T07:16:15.003Z,1000.17
2018-05-03T07:17:20.280Z,1000.22
2018-05-03T07:18:24.640Z,1000.1
2018-05-03T07:19:29.011Z,1000.13
2018-05-03T07:20:34.269Z,1000.19
2018-05-03T07:21:39.639Z,1000.25
2018-05-03T07:22:43.897Z,1000.11
2018-05-03T07:23:52.273Z,1000.19
2018-05-03T07:24:57.432Z,1000.23
2018-05-03T07:26:02.706Z,1000.22
2018-05-03T07:27:08.072Z,1000.26
2018-05-03T07:28:12.336Z,1000.2
2018-05-03T07:29:16.622Z,1000.14
2018-05-03T07:30:21.894Z,1000.16
2018-05-03T07:31:27.064Z,1000.22
2018-05-03T07:32:32.319Z,1000.25
2018-05-03T07:33:36.575Z,1000.28
2018-05-03T07:34:40.844Z,1000.34
2018-05-03T07:35:46.204Z,1000.22
2018-05-03T07:36:51.582Z,1000.32
2018-05-03T07:37:55.854Z,1000.29
2018-05-03T07:39:00.219Z,1000.31
2018-05-03T07:40:05.580Z,1000.31
2018-05-03T07:41:10.951Z,1000.38
2018-05-03T07:42:15.323Z,1000.32
2018-05-03T07:43:20.590Z,1000.35
2018-05-03T07:44:25.958Z,1000.38
2018-05-03T07:45:30.231Z,1000.43
2018-05-03T07:46:34.405Z,1000.4
2018-05-03T07:47:38.660Z,1000.41
2018-05-03T07:48:43.916Z,1000.41
2018-05-03T07:49:49.182Z,1000.53
2018-05-03T07:50:53.574Z,1000.46
2018-05-03T07:51:57.848Z,1000.44
2018-05-03T07:53:03.011Z,1000.57
2018-05-03T07:54:08.276Z,1000.53
2018-05-03T07:55:13.533Z,1000.5
2018-05-03T07:56:17.809Z,1000.56
2018-05-03T07:57:22.070Z,1000.53
2018-05-03T07:58:27.335Z,1000.56
2018-05-03T07:59:32.596Z,1000.54
2018-05-03T08:00:37.966Z,1000.54
2018-05-03T08:01:42.341Z,1000.6
2018-05-03T08:02:47.615Z,1000.66
2018-05-03T08:03:52.108Z,1000.56
2018-05-03T08:04:56.362Z,1000.63
2018-05-03T08:06:00.734Z,1000.63
2018-05-03T08:07:05.999Z,1000.66
2018-05-03T08:08:11.266Z,1000.69
2018-05-03T08:09:15.430Z,1000.63
2018-05-03T08:10:19.795Z,1000.8
2018-05-03T08:11:25.060Z,1000.76
2018-05-03T08:12:30.368Z,1000.83
2018-05-03T08:13:35.533Z,1000.73
2018-05-03T08:14:39.789Z,1000.8
2018-05-03T08:15:44.046Z,1000.77
2018-05-03T08:16:48.412Z,1000.86
2018-05-03T08:17:53.676Z,1000.88
2018-05-03T08:18:58.939Z,1000.79
2018-05-03T08:20:03.297Z,1000.83
2018-05-03T08:21:08.564Z,1000.92
2018-05-03T08:22:13.828Z,1000.89
2018-05-03T08:23:19.086Z,1000.86
2018-05-03T08:24:27.446Z,1000.92
2018-05-03T08:25:31.713Z,1000.94
2018-05-03T08:26:36.980Z,1000.91
2018-05-03T08:27:42.336Z,1001
2018-05-03T08:28:47.596Z,1000.95
2018-05-03T08:29:51.950Z,1001.08
2018-05-03T08:30:56.316Z,1000.95
2018-05-03T08:32:01.586Z,1000.94
2018-05-03T08:33:06.842Z,1001.02
2018-05-03T08:34:11.095Z,1001.04
2018-05-03T08:35:15.448Z,1000.98
2018-05-03T08:36:04.976Z,1000.98
2018-05-03T08:37:10.230Z,1001.01
2018-05-03T08:38:15.491Z,1001.04
2018-05-03T08:39:19.755Z,1001.11
2018-05-03T08:40:24.018Z,1001.08
2018-05-03T08:41:29.165Z,1001.05
2018-05-03T08:42:34.426Z,1001.07
2018-05-03T08:43:39.686Z,1001.11
2018-05-03T08:44:44.953Z,1001.13
2018-05-03T08:45:49.220Z,1001.11
2018-05-03T08:46:53.586Z,1001.11
2018-05-03T08:47:58.950Z,1001.14
2018-05-03T08:49:04.321Z,1001.17
2018-05-03T08:50:08.581Z,1001.16
2018-05-03T08:51:15.859Z,1001.17
2018-05-03T08:52:21.130Z,1001.19
2018-05-03T08:53:26.596Z,1001.2
2018-05-03T08:54:30.862Z,1001.29
2018-05-03T08:55:35.284Z,1001.32
2018-05-03T08:56:40.550Z,1001.22
2018-05-03T08:57:45.818Z,1001.22
2018-05-03T08:58:50.084Z,1001.26
2018-05-03T08:59:54.447Z,1001.29
2018-05-03T09:00:59.716Z,1001.35
2018-05-03T09:02:04.983Z,1001.29
2018-05-03T09:03:09.243Z,1001.28
2018-05-03T09:04:13.610Z,1001.29
2018-05-03T09:05:18.968Z,1001.29
2018-05-03T09:06:24.235Z,1001.25
2018-05-03T09:07:28.600Z,1001.29
2018-05-03T09:08:33.937Z,1001.28
2018-05-03T09:09:39.199Z,1001.22
2018-05-03T09:10:44.464Z,1001.29
2018-05-03T09:11:48.636Z,1001.34
2018-05-03T09:12:52.900Z,1001.37
2018-05-03T09:13:57.159Z,1001.32
2018-05-03T09:15:02.420Z,1001.35
2018-05-03T09:16:07.887Z,1001.34
2018-05-03T09:17:12.257Z,1001.34
2018-05-03T09:18:17.522Z,1001.38
2018-05-03T09:19:22.783Z,1001.34
2018-05-03T09:20:28.037Z,1001.4
2018-05-03T09:21:32.409Z,1001.4
2018-05-03T09:22:40.666Z,1001.43
2018-05-03T09:23:46.026Z,1001.41
2018-05-03T09:24:51.291Z,1001.41
2018-05-03T09:25:55.752Z,1001.41
2018-05-03T09:27:00.024Z,1001.46
2018-05-03T09:28:05.288Z,1001.43
2018-05-03T09:29:10.652Z,1001.44
2018-05-03T09:30:14.915Z,1001.43
2018-05-03T09:31:19.291Z,1001.47
2018-05-03T09:32:24.557Z,1001.41
2018-05-03T09:33:29.917Z,1001.49
2018-05-03T09:34:37.180Z,1001.37
2018-05-03T09:35:41.544Z,1001.38
2018-05-03T09:36:49.821Z,1001.44
2018-05-03T09:37:55.085Z,1001.52
2018-05-03T09:39:00.451Z,1001.52
2018-05-03T09:40:04.711Z,1001.52
2018-05-03T09:41:09.089Z,1001.58
2018-05-03T09:42:14.361Z,1001.5
2018-05-03T09:43:19.721Z,1001.49
2018-05-03T09:44:23.997Z,1001.49
2018-05-03T09:45:28.264Z,1001.55
2018-05-03T09:46:33.539Z,1001.49
2018-05-03T09:47:38.804Z,1001.52
2018-05-03T09:48:43.159Z,1001.52
2018-05-03T09:49:47.515Z,1001.52
2018-05-03T09:50:52.772Z,1001.47
2018-05-03T09:51:58.138Z,1001.49
2018-05-03T09:53:02.403Z,1001.55
2018-05-03T09:54:06.659Z,1001.48
2018-05-03T09:55:11.944Z,1001.51
2018-05-03T09:56:17.205Z,1001.49
2018-05-03T09:57:21.371Z,1001.61
2018-05-03T09:58:25.628Z,1001.61
2018-05-03T09:59:29.982Z,1001.58
2018-05-03T10:00:35.160Z,1001.56
2018-05-03T10:01:40.425Z,1001.53
2018-05-03T10:02:45.786Z,1001.64
2018-05-03T10:03:50.046Z,1001.67
2018-05-03T10:04:54.547Z,1001.58
2018-05-03T10:05:58.983Z,1001.62
2018-05-03T10:07:03.318Z,1001.61
2018-05-03T10:08:08.685Z,1001.59
2018-05-03T10:09:14.153Z,1001.55
2018-05-03T10:10:18.622Z,1001.61
2018-05-03T10:11:23.966Z,1001.68
2018-05-03T10:12:29.425Z,1001.59
2018-05-03T10:13:33.862Z,1001.67
2018-05-03T10:14:39.248Z,1001.65
2018-05-03T10:15:43.523Z,1001.59
2018-05-03T10:16:47.793Z,1001.65
2018-05-03T10:17:53.063Z,1001.62
2018-05-03T10:18:58.425Z,1001.62
2018-05-03T10:20:04.785Z,1001.64
2018-05-03T10:21:09.054Z,1001.61
2018-05-03T10:22:14.420Z,1001.7
2018-05-03T10:23:19.677Z,1001.67
2018-05-03T10:24:25.043Z,1001.76
2018-05-03T10:25:29.309Z,1001.64
2018-05-03T10:26:36.570Z,1001.56
2018-05-03T10:27:41.860Z,1001.64
2018-05-03T10:28:47.125Z,1001.65
2018-05-03T10:29:51.332Z,1001.7
2018-05-03T10:30:55.590Z,1001.71
2018-05-03T10:31:59.862Z,1001.64
2018-05-03T10:33:05.090Z,1001.68
2018-05-03T10:34:10.351Z,1001.7
2018-05-03T10:35:15.679Z,1001.67
2018-05-03T10:36:20.061Z,1001.74
2018-05-03T10:37:28.332Z,1001.76
2018-05-03T10:38:33.699Z,1001.7
2018-05-03T10:39:38.955Z,1001.73
2018-05-03T10:40:43.215Z,1001.74
2018-05-03T10:41:47.518Z,1001.68
2018-05-03T10:42:52.881Z,1001.68
2018-05-03T10:43:58.035Z,1001.59
2018-05-03T10:45:03.299Z,1001.61
2018-05-03T10:46:07.568Z,1001.61
2018-05-03T10:47:11.935Z,1001.65
2018-05-03T10:48:17.298Z,1001.67
2018-05-03T10:49:21.456Z,1001.67
2018-05-03T10:50:25.713Z,1001.65
2018-05-03T10:51:29.986Z,1001.7
2018-05-03T10:52:35.250Z,1001.68
2018-05-03T10:53:40.513Z,1001.65
2018-05-03T10:54:44.877Z,1001.62
2018-05-03T10:55:49.156Z,1001.64
2018-05-03T10:56:54.426Z,1001.68
2018-05-03T10:57:59.793Z,1001.58
2018-05-03T10:59:04.053Z,1001.62
2018-05-03T11:00:08.413Z,1001.62
2018-05-03T11:01:13.784Z,1001.62
2018-05-03T11:02:19.146Z,1001.61
2018-05-03T11:03:23.407Z,1001.53
2018-05-03T11:04:27.772Z,1001.61
2018-05-03T11:05:33.203Z,1001.64
2018-05-03T11:06:38.375Z,1001.52
2018-05-03T11:07:42.737Z,1001.65
2018-05-03T11:08:48.100Z,1001.61
2018-05-03T11:09:53.357Z,1001.64
2018-05-03T11:10:58.617Z,1001.58
2018-05-03T11:12:02.988Z,1001.64
2018-05-03T11:13:08.350Z,1001.7
2018-05-03T11:14:13.729Z,1001.62
2018-05-03T11:15:18.029Z,1001.68
2018-05-03T11:16:22.303Z,1001.67
2018-05-03T11:17:27.571Z,1001.61
2018-05-03T11:18:32.938Z,1001.59
2018-05-03T11:19:37.299Z,1001.53
2018-05-03T11:20:41.681Z,1001.64
2018-05-03T11:21:46.951Z,1001.7
2018-05-03T11:22:52.212Z,1001.55
2018-05-03T11:23:56.576Z,1001.7
2018-05-03T11:25:00.835Z,1001.73
2018-05-03T11:26:06.205Z,1001.62
2018-05-03T11:27:11.469Z,1001.73
2018-05-03T11:28:15.829Z,1001.74
2018-05-03T11:29:20.198Z,1001.65
2018-05-03T11:30:25.461Z,1001.71
2018-05-03T11:31:30.872Z,1001.64
2018-05-03T11:32:35.142Z,1001.68
2018-05-03T11:33:40.505Z,1001.64
2018-05-03T11:34:45.767Z,1001.7
2018-05-03T11:35:51.129Z,1001.67
2018-05-03T11:36:55.476Z,1001.62
2018-05-03T11:38:03.769Z,1001.61
2018-05-03T11:39:09.026Z,1001.68
2018-05-03T11:40:14.280Z,1001.71
2018-05-03T11:41:18.652Z,1001.67
2018-05-03T11:42:23.018Z,1001.65
2018-05-03T11:43:28.283Z,1001.58
2018-05-03T11:44:33.644Z,1001.67
2018-05-03T11:45:37.903Z,1001.67
2018-05-03T11:46:42.173Z,1001.67
2018-05-03T11:47:47.433Z,1001.71
2018-05-03T11:48:52.791Z,1001.79
2018-05-03T11:49:57.036Z,1001.74
2018-05-03T11:51:01.308Z,1001.7
2018-05-03T11:52:06.672Z,1001.74
2018-05-03T11:53:12.044Z,1001.77
2018-05-03T11:54:16.304Z,1001.8
2018-05-03T11:55:20.566Z,1001.76
2018-05-03T11:56:26.035Z,1001.76
2018-05-03T11:57:31.396Z,1001.76
2018-05-03T11:58:35.659Z,1001.79
2018-05-03T11:59:39.914Z,1001.85
2018-05-03T12:00:45.179Z,1001.79
2018-05-03T12:01:50.548Z,1001.82
2018-05-03T12:02:54.806Z,1001.79
2018-05-03T12:03:59.164Z,1001.83
2018-05-03T12:05:04.523Z,1001.83
2018-05-03T12:06:09.920Z,1001.8
2018-05-03T12:07:14.279Z,1001.82
2018-05-03T12:08:19.441Z,1001.79
2018-05-03T12:09:28.808Z,1001.8
2018-05-03T12:10:34.073Z,1001.77
2018-05-03T12:11:38.348Z,1001.79
2018-05-03T12:12:42.609Z,1001.77
2018-05-03T12:13:47.970Z,1001.82
2018-05-03T12:14:53.333Z,1001.74
2018-05-03T12:15:57.601Z,1001.79
2018-05-03T12:17:01.970Z,1001.88
2018-05-03T12:18:07.229Z,1001.8
2018-05-03T12:19:12.597Z,1001.82
2018-05-03T12:20:16.864Z,1001.8
2018-05-03T12:21:21.235Z,1001.79
2018-05-03T12:22:26.598Z,1001.86
2018-05-03T12:23:31.857Z,1001.82
2018-05-03T12:24:36.114Z,1001.83
2018-05-03T12:25:40.401Z,1001.88
2018-05-03T12:26:45.672Z,1001.86
2018-05-03T12:27:50.934Z,1001.8
2018-05-03T12:28:55.098Z,1001.91
2018-05-03T12:29:59.357Z,1001.88
2018-05-03T12:31:03.724Z,1001.83
2018-05-03T12:32:08.994Z,1001.88
2018-05-03T12:33:14.258Z,1001.95
2018-05-03T12:34:18.514Z,1001.96
2018-05-03T12:35:22.774Z,1002.05
2018-05-03T12:36:28.141Z,1002.02
2018-05-03T12:37:33.604Z,1002.02
2018-05-03T12:38:41.872Z,1001.99
2018-05-03T12:39:46.134Z,1001.99
2018-05-03T12:40:53.397Z,1002.01
2018-05-03T12:41:58.668Z,1002.01
2018-05-03T12:43:04.025Z,1001.98
2018-05-03T12:44:08.310Z,1002.01
2018-05-03T12:45:12.571Z,1001.93
2018-05-03T12:46:17.851Z,1001.95
2018-05-03T12:47:23.018Z,1001.92
2018-05-03T12:48:28.275Z,1001.9
2018-05-03T12:49:32.640Z,1001.93
2018-05-03T12:50:37.099Z,1001.96
2018-05-03T12:51:42.367Z,1001.99
2018-05-03T12:52:47.629Z,1001.98
2018-05-03T12:53:51.785Z,1001.99
2018-05-03T12:54:56.066Z,1001.98
2018-05-03T12:56:01.332Z,1001.96
2018-05-03T12:57:06.694Z,1001.93
2018-05-03T12:58:10.958Z,1001.96
2018-05-03T12:59:15.219Z,1002.02
2018-05-03T13:00:19.478Z,1002.07
2018-05-03T13:01:24.755Z,1002.07
2018-05-03T13:02:30.018Z,1002.07
2018-05-03T13:03:34.284Z,1002.08
2018-05-03T13:04:38.652Z,1002.08
2018-05-03T13:05:43.921Z,1002.07
2018-05-03T13:06:49.294Z,1002.04
2018-05-03T13:07:53.652Z,1001.98
2018-05-03T13:08:58.017Z,1001.98
2018-05-03T13:10:03.382Z,1001.96
2018-05-03T13:11:07.651Z,1001.89
2018-05-03T13:12:11.912Z,1002.05
2018-05-03T13:13:19.174Z,1001.98
2018-05-03T13:14:24.438Z,1002.02
2018-05-03T13:15:29.697Z,1001.96
2018-05-03T13:16:34.969Z,1001.95
2018-05-03T13:17:39.236Z,1001.86
2018-05-03T13:18:43.605Z,1001.96
2018-05-03T13:19:48.869Z,1001.93
2018-05-03T13:20:54.232Z,1001.95